Latest Weather Observations for Archerfield

IDQ60901

Issued at 9:41 am EST Thursday 3 September 2015 (issued every 10 minutes, with the page automatically refreshed every 10 minutes)

About weather observations | Map of Brisbane area stations | Latest observations for Brisbane area | Other Formats
Station Details ID: 040211 Name: ARCHERFIELD AIRPORT Lat: -27.57 Lon: 153.01 Height: 12.5 m
Data from the previous 72 hours. | See also: Recent months at Archerfield
Date/Time
EST
Tmp

°C
App
Tmp
°C
Dew
Point
°C
Rel
Hum
%
Delta-T

°C
Wind Press
QNH
hPa
Press
MSL
hPa
Rain
since
9 am
mm
Dir
 
Spd
km/h
Gust
km/h
Spd
kts
Gust
kts
03/09:30am 21.4 19.4 17.4 78 2.5 N 24 35 13 19 1011.2 1011.1 0.0
03/09:00am 20.3 18.4 16.7 80 2.2 N 22 30 12 16 1011.5 1011.4 1.4
03/08:30am 18.3 19.4 16.5 89 1.1 NNW 6 11 3 6 1011.9 1011.8 1.4
03/08:00am 17.1 18.8 15.3 89 1.0 CALM 0 0 0 0 1011.6 1011.5 1.4
03/07:30am 16.3 16.3 14.3 88 1.1 NW 7 9 4 5 1012.1 1012.0 1.4
03/07:00am 16.1 16.4 14.5 90 0.9 NNW 6 7 3 4 1011.8 1011.7 1.4
03/06:42am 15.4 15.6 14.1 92 0.7 NW 6 9 3 5 1011.9 1011.8 1.4
03/06:30am 15.7 15.4 14.4 92 0.7 WNW 9 13 5 7 1012.1 1012.0 1.4
03/06:00am 15.9 15.3 14.6 92 0.7 WSW 11 13 6 7 1011.9 1011.8 1.4
03/05:41am 16.8 16.1 15.3 91 0.9 N 13 19 7 10 1011.5 1011.4 1.4
03/05:30am 16.8 16.0 15.2 90 0.9 N 13 22 7 12 1011.4 1011.3 1.4
03/05:00am 16.3 14.7 15.0 92 0.8 N 17 22 9 12 1011.3 1011.2 1.4
03/04:30am 15.9 14.9 14.6 92 0.7 N 13 19 7 10 1011.2 1011.1 1.4
03/04:00am 15.8 15.2 14.5 92 0.7 NNW 11 15 6 8 1011.2 1011.1 1.4
03/03:30am 16.0 13.6 14.5 91 0.9 N 20 24 11 13 1011.2 1011.1 1.4
03/03:00am 15.9 13.5 14.3 90 0.9 NNE 20 26 11 14 1011.8 1011.7 1.4
03/02:30am 15.8 15.2 14.7 93 0.6 NE 11 17 6 9 1012.3 1012.2 1.2
03/02:00am 15.8 15.4 14.0 89 1.0 SE 9 13 5 7 1013.4 1013.3 1.0
03/01:30am 16.2 14.9 13.7 85 1.4 NW 13 17 7 9 1014.7 1014.6 0.0
03/01:00am 15.6 14.8 12.9 84 1.5 NNE 9 11 5 6 1013.7 1013.6 0.0
03/12:30am 16.2 17.0 12.7 80 1.9 CALM 0 0 0 0 1014.5 1014.4 0.0
03/12:00am 16.8 16.1 13.3 80 2.0 WNW 9 11 5 6 1015.2 1015.1 0.0
 
Date/Time
EST
Tmp

°C
App
Tmp
°C
Dew
Point
°C
Rel
Hum
%
Delta-T

°C
Wind Press
QNH
hPa
Press
MSL
hPa
Rain
since
9 am
mm
Dir
 
Spd
km/h
Gust
km/h
Spd
kts
Gust
kts
02/11:30pm 17.2 15.8 13.5 79 2.1 N 13 17 7 9 1015.5 1015.4 0.0
02/11:00pm 17.9 16.3 13.8 77 2.3 N 15 26 8 14 1015.3 1015.2 0.0
02/10:30pm 18.6 16.4 14.3 76 2.5 N 19 26 10 14 1014.6 1014.5 0.0
02/10:00pm 18.2 16.6 15.1 82 1.8 N 17 20 9 11 1014.4 1014.3 0.0
02/09:30pm 18.4 17.0 15.5 83 1.7 NNE 17 24 9 13 1014.5 1014.4 0.0
02/09:00pm 18.3 16.8 15.4 83 1.7 NNE 17 22 9 12 1014.7 1014.6 0.0
02/08:30pm 17.5 16.7 14.0 80 2.0 NE 11 15 6 8 1014.9 1014.8 0.0
02/08:00pm 17.0 15.7 12.5 75 2.5 ENE 11 13 6 7 1015.0 1014.9 0.0
02/07:30pm 17.2 16.1 12.1 72 2.8 E 9 11 5 6 1015.1 1015.0 0.0
02/07:00pm 16.6 15.1 10.7 68 3.1 ENE 9 11 5 6 1015.3 1015.2 0.0
02/06:30pm 17.7 15.4 10.3 62 3.9 ENE 13 20 7 11 1015.0 1014.9 0.0
02/06:00pm 18.5 15.6 9.8 57 4.6 ENE 15 20 8 11 1015.2 1015.1 0.0
02/05:30pm 19.3 15.5 8.9 51 5.4 NE 19 22 10 12 1015.2 1015.1 0.0
02/05:00pm 20.5 16.4 8.5 46 6.3 NE 20 28 11 15 1015.0 1014.9 0.0
02/04:30pm 21.8 16.6 5.7 35 8.1 NE 22 30 12 16 1014.6 1014.5 0.0
02/04:00pm 23.0 17.4 3.5 28 9.4 NNE 22 30 12 16 1014.7 1014.6 0.0
02/03:30pm 23.5 18.3 3.4 27 9.7 NNE 20 28 11 15 1014.8 1014.7 0.0
02/03:00pm 24.1 18.5 3.4 26 10.1 NNE 22 33 12 18 1014.7 1014.6 0.0
02/02:30pm 24.8 20.3 2.3 23 10.8 NNE 15 26 8 14 1014.9 1014.8 0.0
02/02:00pm 24.7 20.6 2.2 23 10.8 NE 13 19 7 10 1015.3 1015.2 0.0
02/01:30pm 24.7 21.4 2.2 23 10.8 NNW 9 17 5 9 1015.9 1015.8 0.0
02/01:00pm 24.3 21.0 2.5 24 10.4 NE 9 15 5 8 1016.6 1016.5 0.0
02/12:30pm 23.8 21.1 2.6 25 10.1 NNE 6 11 3 6 1017.3 1017.2 0.0
02/12:00pm 23.7 20.9 3.1 26 9.9 NNW 7 13 4 7 1017.7 1017.6 0.0
02/11:30am 22.0 18.9 1.6 26 9.5 WSW 7 13 4 7 1018.3 1018.2 0.0
02/11:00am 21.6 18.8 3.3 30 8.7 WSW 7 11 4 6 1019.1 1019.0 0.0
02/10:30am 20.1 17.1 4.2 35 7.6 WSW 9 13 5 7 1019.5 1019.4 0.0
02/10:00am 19.3 16.2 3.5 35 7.4 W 9 17 5 9 1019.5 1019.4 0.0
02/09:30am 18.8 15.4 3.8 37 7.1 WSW 11 17 6 9 1020.1 1020.0 0.0
02/09:00am 17.5 14.2 4.8 43 6.0 W 11 13 6 7 1019.9 1019.8 0.0
02/08:30am 15.0 12.8 5.2 52 4.6 W 6 7 3 4 1019.8 1019.7 0.0
02/08:00am 13.3 12.1 4.7 56 3.9 CALM 0 6 0 3 1019.5 1019.4 0.0
02/07:30am 11.0 9.6 3.8 61 3.2 CALM 0 0 0 0 1019.4 1019.3 0.0
02/07:00am 8.2 7.1 5.0 80 1.4 CALM 0 0 0 0 1019.2 1019.1 0.0
02/06:30am 6.4 4.6 3.4 81 1.3 WSW 2 6 1 3 1019.1 1019.0 0.0
02/06:00am 5.1 3.6 3.0 86 0.9 CALM 0 0 0 0 1018.4 1018.3 0.0
02/05:30am 4.4 2.7 1.6 82 1.1 CALM 0 0 0 0 1018.1 1018.0 0.0
02/05:00am 6.0 2.2 1.9 75 1.6 S 11 13 6 7 1017.6 1017.5 0.0
02/04:30am 5.0 1.3 2.5 84 1.0 S 11 13 6 7 1017.3 1017.2 0.0
02/04:00am 6.6 3.7 2.5 75 1.7 S 7 9 4 5 1017.2 1017.1 0.0
02/03:30am 5.0 2.1 1.3 77 1.5 S 6 9 3 5 1017.1 1017.0 0.0
02/03:00am 7.1 5.5 2.4 72 1.9 CALM 0 0 0 0 1017.2 1017.1 0.0
02/02:30am 8.2 6.5 2.0 65 2.6 CALM 0 0 0 0 1017.1 1017.0 0.0
02/02:00am 7.4 5.6 1.5 66 2.4 CALM 0 4 0 2 1017.2 1017.1 0.0
02/01:30am 7.0 3.7 0.0 61 2.7 SW 7 9 4 5 1017.1 1017.0 0.0
02/01:00am 10.0 7.9 1.6 56 3.5 SSE 2 9 1 5 1017.0 1016.9 0.0
02/12:30am 10.1 8.4 2.0 57 3.4 CALM 0 0 0 0 1017.1 1017.0 0.0
02/12:00am 11.1 8.1 1.1 50 4.2 NE 6 6 3 3 1017.0 1016.9 0.0
 
Date/Time
EST
Tmp

°C
App
Tmp
°C
Dew
Point
°C
Rel
Hum
%
Delta-T

°C
Wind Press
QNH
hPa
Press
MSL
hPa
Rain
since
9 am
mm
Dir
 
Spd
km/h
Gust
km/h
Spd
kts
Gust
kts
01/11:30pm 11.3 9.5 1.0 49 4.3 CALM 0 7 0 4 1016.9 1016.8 0.0
01/11:00pm 11.9 8.1 1.8 50 4.3 SW 11 13 6 7 1016.8 1016.7 0.0
01/10:30pm 11.3 8.1 1.0 49 4.3 WNW 7 9 4 5 1016.7 1016.6 0.0
01/10:00pm 10.9 8.3 0.9 50 4.1 NNE 4 7 2 4 1016.5 1016.4 0.0
01/09:30pm 13.1 10.4 0.2 41 5.4 W 4 6 2 3 1016.2 1016.1 0.0
01/09:00pm 12.6 9.9 0.4 43 5.1 N 4 7 2 4 1016.1 1016.0 0.0
01/08:30pm 12.3 9.9 -0.6 41 5.2 NNW 2 9 1 5 1015.8 1015.7 0.0
01/08:00pm 14.7 11.2 -2.7 30 6.9 WNW 6 6 3 3 1015.6 1015.5 0.0
01/07:30pm 17.4 13.0 -2.3 26 8.1 W 11 13 6 7 1015.2 1015.1 0.0
01/07:00pm 17.1 12.6 -3.1 25 8.1 W 11 15 6 8 1014.9 1014.8 0.0
01/06:30pm 18.5 14.3 -4.2 21 9.1 W 9 11 5 6 1014.4 1014.3 0.0
01/06:00pm 18.9 13.9 -4.5 20 9.3 W 13 19 7 10 1014.0 1013.9 0.0
01/05:30pm 21.3 15.5 -4.7 17 10.6 W 17 24 9 13 1013.7 1013.6 0.0
01/05:00pm 23.1 16.6 -5.8 14 11.7 W 20 28 11 15 1013.3 1013.2 0.0
01/04:30pm 24.1 16.9 -5.0 14 12.1 W 24 35 13 19 1013.2 1013.1 0.0
01/04:00pm 24.7 17.1 -5.5 13 12.5 W 26 41 14 22 1012.9 1012.8 0.0
01/03:30pm 25.2 18.2 -3.2 15 12.3 W 24 35 13 19 1012.7 1012.6 0.0
01/03:00pm 25.2 18.1 -4.2 14 12.5 W 24 33 13 18 1012.8 1012.7 0.0
01/02:30pm 25.6 19.0 -2.9 15 12.5 WNW 22 35 12 19 1013.2 1013.1 0.0
01/02:00pm 24.7 18.3 -2.0 17 11.8 WNW 22 33 12 18 1013.6 1013.5 0.0
01/01:30pm 23.7 17.8 -0.6 20 10.9 W 20 32 11 17 1013.9 1013.8 0.0
01/01:00pm 23.2 18.1 0.9 23 10.3 NW 17 26 9 14 1014.4 1014.3 0.0
01/12:30pm 23.1 18.1 3.6 28 9.5 W 19 32 10 17 1014.8 1014.7 0.0
01/12:00pm 21.9 18.2 4.5 32 8.5 W 13 24 7 13 1015.1 1015.0 0.0
01/11:30am 21.4 17.5 5.3 35 8.0 W 15 26 8 14 1015.9 1015.8 0.0
01/11:00am 20.5 16.1 4.5 35 7.7 W 17 24 9 13 1016.6 1016.5 0.0
01/10:30am 19.5 15.0 4.4 37 7.3 W 17 24 9 13 1017.1 1017.0 0.0
01/10:00am 19.2 15.1 6.0 42 6.5 WNW 17 26 9 14 1017.3 1017.2 0.0
01/09:30am 17.5 14.1 5.8 46 5.7 W 13 19 7 10 1017.4 1017.4 0.0
01/09:00am 16.8 13.0 6.0 49 5.2 W 15 20 8 11 1017.6 1017.6 0.0
01/08:30am 15.6 11.7 5.5 51 4.8 WSW 15 20 8 11 1017.6 1017.6 0.0
01/08:00am 14.6 9.9 5.9 56 4.1 W 20 24 11 13 1017.4 1017.4 0.0
01/07:30am 13.5 9.7 5.9 60 3.6 W 15 20 8 11 1017.0 1017.0 0.0
01/07:00am 12.0 8.9 5.6 65 3.0 WSW 11 13 6 7 1016.8 1016.8 0.0
01/06:30am 10.4 7.1 4.8 68 2.5 WSW 11 13 6 7 1016.6 1016.6 0.0
01/06:00am 10.3 6.3 4.7 68 2.5 WSW 15 19 8 10 1016.0 1016.0 0.0
01/05:30am 9.9 5.6 5.1 72 2.2 W 17 20 9 11 1015.8 1015.8 0.0
01/05:00am 9.2 7.9 4.2 71 2.2 CALM 0 0 0 0 1015.6 1015.6 0.0
01/04:30am 10.2 7.7 4.6 68 2.5 WSW 7 9 4 5 1015.4 1015.4 0.0
01/04:00am 9.7 6.4 4.5 70 2.3 W 11 13 6 7 1015.3 1015.3 0.0
01/03:30am 10.5 7.6 4.6 67 2.6 SW 9 13 5 7 1015.3 1015.3 0.0
01/03:00am 10.5 7.7 5.1 69 2.4 SW 9 13 5 7 1015.2 1015.2 0.0
01/02:30am 9.3 6.0 4.7 73 2.0 W 11 13 6 7 1015.4 1015.4 0.0
01/02:00am 10.7 7.8 4.8 67 2.7 WSW 9 9 5 5 1015.7 1015.7 0.0
01/01:30am 10.6 9.3 3.9 63 3.0 CALM 0 0 0 0 1016.0 1016.0 0.0
01/01:00am 11.0 9.6 3.5 60 3.3 CALM 0 7 0 4 1016.0 1016.0 0.0
01/12:30am 11.8 10.4 3.6 57 3.6 CALM 0 0 0 0 1016.1 1016.1 0.0
01/12:00am 11.2 8.6 3.0 57 3.6 W 6 9 3 5 1016.2 1016.2 0.0
 
Date/Time
EST
Tmp

°C
App
Tmp
°C
Dew
Point
°C
Rel
Hum
%
Delta-T

°C
Wind Press
QNH
hPa
Press
MSL
hPa
Rain
since
9 am
mm
Dir
 
Spd
km/h
Gust
km/h
Spd
kts
Gust
kts
31/11:30pm 12.1 8.6 3.3 55 3.9 WSW 11 13 6 7 1016.3 1016.3 0.0
31/11:00pm 12.8 9.3 3.5 53 4.1 WSW 11 15 6 8 1016.4 1016.4 0.0
31/10:30pm 12.5 9.0 3.7 55 3.9 W 11 13 6 7 1016.4 1016.4 0.0
31/10:00pm 11.7 8.5 5.1 64 3.0 W 11 11 6 6 1016.3 1016.3 0.0
31/09:30pm 13.3 10.9 7.1 66 3.0 WSW 9 13 5 7 1016.1 1016.1 0.0
31/09:00pm 13.9 11.4 6.7 62 3.5 SW 9 11 5 6 1015.8 1015.8 0.0
31/08:30pm 13.3 10.0 4.5 55 4.0 SW 11 13 6 7 1015.4 1015.4 0.0
31/08:00pm 14.4 10.1 1.3 41 5.7 W 13 17 7 9 1015.3 1015.3 0.0
31/07:30pm 15.8 12.3 1.2 37 6.4 SSW 9 11 5 6 1015.0 1015.0 0.0
31/07:00pm 16.3 12.6 0.0 33 7.0 W 9 11 5 6 1014.5 1014.5 0.0
31/06:30pm 16.8 12.8 0.5 33 7.1 WNW 11 13 6 7 1014.0 1014.0 0.0
31/06:00pm 18.4 13.9 -0.4 28 8.1 WNW 13 13 7 7 1013.7 1013.7 0.0
31/05:30pm 19.3 14.0 -0.7 26 8.7 WNW 17 20 9 11 1013.5 1013.5 0.0
31/05:00pm 21.4 15.4 -1.8 21 10.0 WNW 20 24 11 13 1013.2 1013.2 0.0
31/04:30pm 22.4 16.4 0.9 24 9.9 NW 22 33 12 18 1012.9 1012.9 0.0
31/04:00pm 23.0 17.5 0.8 23 10.2 NW 19 26 10 14 1012.6 1012.6 0.0
31/03:30pm 23.5 18.5 1.2 23 10.4 WNW 17 32 9 17 1012.7 1012.7 0.0
31/03:00pm 23.6 18.8 2.4 25 10.1 W 17 28 9 15 1012.9 1012.9 0.0
31/02:30pm 23.2 17.6 1.5 24 10.1 NW 20 32 11 17 1013.1 1013.1 0.0
31/02:00pm 23.0 18.8 4.0 29 9.3 W 15 22 8 12 1013.3 1013.3 0.0
31/01:30pm 21.9 17.3 3.6 30 8.8 W 17 26 9 14 1013.7 1013.7 0.0
31/01:00pm 22.0 18.4 5.0 33 8.4 WNW 13 26 7 14 1014.0 1014.0 0.0
31/12:30pm 21.5 18.5 5.8 36 7.9 WSW 11 22 6 12 1014.2 1014.2 0.0
31/12:00pm 22.2 19.0 6.8 37 7.9 W 13 26 7 14 1014.6 1014.6 0.0
31/11:30am 20.6 17.3 6.2 39 7.2 WSW 13 20 7 11 1015.1 1015.1 0.0
31/11:00am 20.2 16.2 6.5 41 6.9 WSW 17 24 9 13 1015.7 1015.7 0.0
31/10:30am 19.9 17.0 8.3 47 6.0 WSW 13 24 7 13 1016.2 1016.2 0.0
31/10:00am 19.2 15.3 7.3 46 6.0 WSW 17 24 9 13 1016.6 1016.6 0.0

Latest Capital City Observations: Canberra | Sydney | Melbourne | Brisbane | Adelaide | Perth | Hobart | Darwin

Other Formats:

Comma delimited format used in spreadsheet applications
http://www.bom.gov.au/fwo/IDQ60901/IDQ60901.94575.axf

JavaScript Object Notation format (JSON) in row-major order
http://www.bom.gov.au/fwo/IDQ60901/IDQ60901.94575.json